Mac Dill Air Force Base Tampa US
ICAO: KMCF
IATA: MCF
Category: Large
Scheduled Services: No

Elevation: 14 ft
TransAlt. 18000 ft.

Airport Communications:
TAMPA APP:124.95
ATIS:133.825
TAMPA DEP:119.65
GND:118.575
PMSV METRO:34.46
6 AMW COMD POST:138.95
PTD:37.22
TWR:123.7

KMCF Zoom In..

If you have problems with the map follow the link
https://www.worldairports.se/pages/airport.php?
ICAO=KMCF

Runways:

(A) RW 04 length 11421 ft width 151 ft
ILS 109.50 / hdg 45

(B) RW 22 length 11421 ft width 151 ft
ILS 111.70 / hdg 225

Location; KMCF
Day. 19 / Time. 14.56 Zulu
* Altimeter: 30.14
* Temperature: 21° c. 69.8°f.
* Wind from: 150° Speed 09 kn.
Dewpoint: 17° c.
Visibility: 10 Statute Miles.
Clouds: Few 9500 ft.
Clouds: Few 12000 ft.
Clouds: Scattered 15000 ft.
Clouds: Scattered 18000 ft.

KMCF 191456Z AUTO 15009KT 10SM FEW095 FEW120 SCT150 SCT180 21/17 A3014 RMK AO2 SLP209 T02060166 52005 FZRANO


Wind From 150°
Speed 09 kn.

 
 
jpsmedia worldairports.se 2020   terms of use